createdAt,value
2022-08-21T00:00:07.613Z,0.00
2022-08-21T00:01:07.584Z,0.00
2022-08-21T00:02:07.613Z,0.00
2022-08-21T00:03:07.557Z,0.00
2022-08-21T00:04:07.541Z,0.00
2022-08-21T00:05:07.527Z,0.00
2022-08-21T00:06:07.524Z,0.00
2022-08-21T00:07:07.498Z,0.00
2022-08-21T00:08:07.481Z,0.00
2022-08-21T00:09:07.470Z,0.00
2022-08-21T00:10:07.454Z,0.00
2022-08-21T00:11:07.445Z,0.00
2022-08-21T00:12:07.424Z,0.00
2022-08-21T00:13:07.411Z,0.00
2022-08-21T00:14:07.399Z,0.00
2022-08-21T00:15:08.569Z,0.00
2022-08-21T00:16:07.369Z,0.00
2022-08-21T00:17:07.356Z,0.00
2022-08-21T00:18:07.339Z,0.00
2022-08-21T00:19:07.336Z,0.00
2022-08-21T00:20:07.308Z,0.00
2022-08-21T00:21:07.301Z,0.00
2022-08-21T00:22:07.283Z,0.00
2022-08-21T00:23:07.269Z,0.00
2022-08-21T00:24:07.680Z,0.00
2022-08-21T00:25:07.253Z,0.00
2022-08-21T00:26:07.222Z,0.00
2022-08-21T00:27:07.213Z,0.00
2022-08-21T00:28:07.196Z,0.00
2022-08-21T00:29:07.182Z,0.00
2022-08-21T00:30:07.170Z,0.00
2022-08-21T00:31:07.152Z,0.00
2022-08-21T00:32:07.135Z,0.00
2022-08-21T00:33:07.124Z,0.00
2022-08-21T00:34:07.108Z,0.00
2022-08-21T00:35:07.097Z,0.00
2022-08-21T00:36:07.079Z,0.00
2022-08-21T00:37:07.084Z,0.00
2022-08-21T00:38:07.053Z,0.00
2022-08-21T00:39:07.038Z,0.00
2022-08-21T00:40:07.067Z,0.00
2022-08-21T00:41:21.013Z,0.00
2022-08-21T00:42:06.992Z,0.00
2022-08-21T00:43:06.986Z,0.00
2022-08-21T00:44:06.966Z,0.00
2022-08-21T00:45:06.969Z,0.00
2022-08-21T00:46:06.938Z,0.00
2022-08-21T00:47:06.922Z,0.00
2022-08-21T00:48:06.904Z,0.00
2022-08-21T00:49:06.895Z,0.00
2022-08-21T00:50:06.891Z,0.00
2022-08-21T00:51:06.863Z,0.00
2022-08-21T00:52:06.847Z,0.00
2022-08-21T00:53:06.838Z,0.00
2022-08-21T00:54:06.822Z,0.00
2022-08-21T00:55:06.806Z,0.00
2022-08-21T00:56:06.791Z,0.00
2022-08-21T00:57:06.776Z,0.00
2022-08-21T00:58:06.762Z,0.00
2022-08-21T00:59:06.765Z,0.00
2022-08-21T01:00:06.731Z,0.00
2022-08-21T01:01:08.731Z,0.00
2022-08-21T01:02:06.706Z,0.00
2022-08-21T01:03:07.401Z,0.00
2022-08-21T01:04:06.674Z,0.00
2022-08-21T01:05:06.661Z,0.00
2022-08-21T01:06:06.648Z,0.00
2022-08-21T01:07:06.633Z,0.00
2022-08-21T01:08:06.616Z,0.00
2022-08-21T01:09:06.605Z,0.00
2022-08-21T01:10:06.586Z,0.00
2022-08-21T01:11:06.575Z,0.00
2022-08-21T01:12:06.561Z,0.00
2022-08-21T01:13:06.544Z,0.00
2022-08-21T01:14:06.530Z,0.00
2022-08-21T01:15:06.516Z,0.00
2022-08-21T01:16:06.560Z,0.00
2022-08-21T01:17:06.486Z,0.00
2022-08-21T01:18:06.471Z,0.00
2022-08-21T01:19:06.477Z,0.00
2022-08-21T01:20:06.444Z,0.00
2022-08-21T01:21:06.428Z,0.00
2022-08-21T01:22:06.415Z,0.00
2022-08-21T01:23:06.401Z,0.00
2022-08-21T01:24:06.386Z,0.00
2022-08-21T01:25:06.371Z,0.00
2022-08-21T01:26:06.353Z,0.00
2022-08-21T01:27:06.340Z,0.00
2022-08-21T01:28:06.337Z,0.00
2022-08-21T01:29:06.314Z,0.00
2022-08-21T01:30:06.534Z,0.00
2022-08-21T01:31:06.284Z,0.00
2022-08-21T01:32:06.268Z,0.00
2022-08-21T01:33:06.254Z,0.00
2022-08-21T01:34:06.237Z,0.00
2022-08-21T01:35:06.232Z,0.00
2022-08-21T01:36:06.208Z,0.00
2022-08-21T01:37:06.195Z,0.00
2022-08-21T01:38:06.183Z,0.00
2022-08-21T01:39:06.166Z,0.00
2022-08-21T01:40:06.290Z,0.00
2022-08-21T01:41:06.136Z,0.00
2022-08-21T01:42:06.121Z,0.00
2022-08-21T01:43:06.128Z,0.00
2022-08-21T01:44:06.089Z,0.00
2022-08-21T01:45:06.078Z,0.00
2022-08-21T01:46:06.969Z,0.00
2022-08-21T01:47:06.048Z,0.00
2022-08-21T01:48:06.033Z,0.00
2022-08-21T01:49:06.019Z,0.00
2022-08-21T01:50:06.002Z,0.00
2022-08-21T01:51:05.988Z,0.00
2022-08-21T01:52:05.973Z,0.00
2022-08-21T01:53:05.961Z,0.00
2022-08-21T01:54:05.945Z,0.00
2022-08-21T01:55:05.930Z,0.00
2022-08-21T01:56:05.915Z,0.00
2022-08-21T01:57:05.901Z,0.00
2022-08-21T01:58:05.884Z,0.00
2022-08-21T01:59:05.869Z,0.00
2022-08-21T02:00:05.857Z,0.00
2022-08-21T02:01:05.906Z,0.00
2022-08-21T02:02:05.838Z,0.00
2022-08-21T02:03:05.812Z,0.00
2022-08-21T02:04:05.797Z,0.00
2022-08-21T02:05:05.783Z,0.00
2022-08-21T02:06:05.767Z,0.00
2022-08-21T02:07:07.095Z,0.00
2022-08-21T02:08:05.737Z,0.00
2022-08-21T02:09:05.724Z,0.00
2022-08-21T02:10:05.710Z,0.00
2022-08-21T02:11:05.694Z,0.00
2022-08-21T02:12:05.679Z,0.00
2022-08-21T02:13:05.665Z,0.00
2022-08-21T02:14:05.649Z,0.00
2022-08-21T02:15:05.637Z,0.00
2022-08-21T02:16:05.622Z,0.00
2022-08-21T02:17:09.287Z,0.00
2022-08-21T02:18:05.596Z,0.00
2022-08-21T02:19:05.576Z,0.00
2022-08-21T02:20:05.566Z,0.00
2022-08-21T02:21:05.546Z,0.00
2022-08-21T02:22:05.533Z,0.00
2022-08-21T02:23:05.515Z,0.00
2022-08-21T02:24:05.503Z,0.00
2022-08-21T02:25:05.487Z,0.00
2022-08-21T02:26:05.478Z,0.00
2022-08-21T02:27:05.456Z,0.00
2022-08-21T02:28:05.461Z,0.00
2022-08-21T02:29:05.431Z,0.00
2022-08-21T02:30:05.415Z,0.00
2022-08-21T02:31:05.400Z,0.00
2022-08-21T02:32:05.385Z,0.00
2022-08-21T02:33:05.369Z,0.00
2022-08-21T02:34:05.358Z,0.00
2022-08-21T02:35:05.338Z,0.00
2022-08-21T02:36:05.324Z,0.00
2022-08-21T02:37:05.309Z,0.00
2022-08-21T02:38:05.297Z,0.00
2022-08-21T02:39:05.278Z,0.00
2022-08-21T02:40:05.320Z,0.00
2022-08-21T02:41:05.252Z,0.00
2022-08-21T02:42:05.236Z,0.00
2022-08-21T02:43:05.221Z,0.00
2022-08-21T02:44:05.206Z,0.00
2022-08-21T02:45:05.191Z,0.00
2022-08-21T02:46:05.177Z,0.00
2022-08-21T02:47:05.162Z,0.00
2022-08-21T02:48:05.147Z,0.00
2022-08-21T02:49:05.133Z,0.00
2022-08-21T02:50:05.119Z,0.00
2022-08-21T02:51:05.102Z,0.00
2022-08-21T02:52:05.087Z,0.00
2022-08-21T02:53:05.073Z,0.00
2022-08-21T02:54:05.061Z,0.00
2022-08-21T02:55:05.042Z,0.00
2022-08-21T02:56:05.031Z,0.00
2022-08-21T02:57:05.013Z,0.00
2022-08-21T02:58:05.000Z,0.00
2022-08-21T02:59:04.982Z,0.00
2022-08-21T03:00:04.970Z,0.00
2022-08-21T03:01:04.953Z,0.00
2022-08-21T03:02:04.994Z,0.00
2022-08-21T03:03:04.935Z,0.00
2022-08-21T03:04:04.930Z,0.00
2022-08-21T03:05:04.896Z,0.00
2022-08-21T03:06:04.881Z,0.00
2022-08-21T03:07:04.866Z,0.00
2022-08-21T03:08:04.851Z,0.00
2022-08-21T03:09:04.858Z,0.00
2022-08-21T03:10:04.833Z,0.00
2022-08-21T03:11:04.808Z,0.00
2022-08-21T03:12:04.800Z,0.00
2022-08-21T03:13:04.776Z,0.00
2022-08-21T03:14:04.779Z,0.00
2022-08-21T03:15:04.748Z,0.00
2022-08-21T03:16:05.404Z,0.00
2022-08-21T03:17:04.718Z,0.00
2022-08-21T03:18:04.705Z,0.00
2022-08-21T03:19:04.704Z,0.00
2022-08-21T03:20:04.697Z,0.00
2022-08-21T03:21:04.662Z,0.00
2022-08-21T03:22:04.645Z,0.00
2022-08-21T03:23:07.699Z,0.00
2022-08-21T03:24:04.613Z,0.00
2022-08-21T03:25:06.283Z,0.00
2022-08-21T03:26:04.585Z,0.00
2022-08-21T03:27:04.568Z,0.00
2022-08-21T03:28:04.556Z,0.00
2022-08-21T03:29:04.541Z,0.00
2022-08-21T03:30:04.527Z,0.00
2022-08-21T03:31:04.508Z,0.00
2022-08-21T03:32:04.494Z,0.00
2022-08-21T03:33:04.480Z,0.00
2022-08-21T03:34:04.465Z,0.00
2022-08-21T03:35:04.452Z,0.00
2022-08-21T03:36:04.437Z,0.00
2022-08-21T03:37:04.420Z,0.00
2022-08-21T03:38:04.405Z,0.00
2022-08-21T03:39:04.389Z,0.00
2022-08-21T03:40:04.425Z,0.00
2022-08-21T03:41:04.359Z,0.00
2022-08-21T03:42:04.350Z,0.00
2022-08-21T03:43:04.329Z,0.00
2022-08-21T03:44:04.321Z,0.00
2022-08-21T03:45:04.299Z,0.00
2022-08-21T03:46:04.295Z,0.00
2022-08-21T03:47:04.269Z,0.00
2022-08-21T03:48:04.257Z,0.00
2022-08-21T03:49:04.239Z,0.00
2022-08-21T03:50:04.235Z,0.00
2022-08-21T03:51:04.210Z,0.00
2022-08-21T03:52:04.197Z,0.00
2022-08-21T03:53:04.187Z,0.00
2022-08-21T03:54:04.166Z,0.00
2022-08-21T03:55:04.150Z,0.00
2022-08-21T03:56:04.136Z,0.00
2022-08-21T03:57:04.124Z,0.00
2022-08-21T03:58:16.634Z,0.00
2022-08-21T03:59:04.089Z,0.00
2022-08-21T04:00:04.077Z,0.00
2022-08-21T04:01:04.082Z,0.00
2022-08-21T04:02:04.119Z,0.00
2022-08-21T04:03:04.030Z,0.00
2022-08-21T04:04:04.017Z,0.00
2022-08-21T04:05:04.004Z,0.00
2022-08-21T04:06:03.986Z,0.00
2022-08-21T04:07:03.969Z,0.00
2022-08-21T04:08:03.957Z,0.00
2022-08-21T04:09:03.946Z,0.00
2022-08-21T04:10:03.928Z,0.00
2022-08-21T04:11:03.917Z,0.00
2022-08-21T04:12:03.899Z,0.00
2022-08-21T04:13:03.881Z,0.00
2022-08-21T04:14:03.868Z,0.00
2022-08-21T04:15:03.853Z,0.00
2022-08-21T04:16:03.834Z,0.00
2022-08-21T04:17:03.841Z,0.00
2022-08-21T04:18:03.808Z,0.00
2022-08-21T04:19:03.790Z,0.00
2022-08-21T04:20:03.778Z,0.00
2022-08-21T04:21:03.762Z,0.00
2022-08-21T04:22:03.745Z,0.00
2022-08-21T04:23:03.728Z,0.00
2022-08-21T04:24:03.713Z,0.00
2022-08-21T04:25:03.698Z,0.00
2022-08-21T04:26:03.694Z,0.00
2022-08-21T04:27:03.691Z,0.00
2022-08-21T04:28:03.655Z,0.00
2022-08-21T04:29:03.642Z,0.00
2022-08-21T04:30:03.624Z,0.00
2022-08-21T04:31:03.608Z,0.00
2022-08-21T04:32:03.593Z,0.00
2022-08-21T04:33:03.577Z,0.00
2022-08-21T04:34:03.569Z,0.00
2022-08-21T04:35:03.550Z,0.00
2022-08-21T04:36:03.532Z,0.00
2022-08-21T04:37:03.525Z,0.00
2022-08-21T04:38:03.504Z,0.00
2022-08-21T04:39:03.623Z,0.00
2022-08-21T04:40:03.504Z,0.00
2022-08-21T04:41:03.458Z,5.63
2022-08-21T04:42:03.443Z,5.63
2022-08-21T04:43:03.426Z,5.63
2022-08-21T04:44:03.411Z,5.63
2022-08-21T04:45:03.398Z,5.63
2022-08-21T04:46:03.385Z,5.63
2022-08-21T04:47:03.364Z,5.63
2022-08-21T04:48:03.360Z,5.63
2022-08-21T04:49:03.333Z,5.63
2022-08-21T04:50:03.323Z,5.63
2022-08-21T04:51:03.305Z,5.63
2022-08-21T04:52:03.291Z,5.63
2022-08-21T04:53:03.289Z,5.63
2022-08-21T04:54:03.262Z,5.63
2022-08-21T04:55:03.245Z,5.63
2022-08-21T04:56:03.231Z,5.63
2022-08-21T04:57:03.217Z,11.25
2022-08-21T04:58:03.202Z,11.25
2022-08-21T04:59:03.184Z,11.25
2022-08-21T05:00:03.171Z,11.25
2022-08-21T05:01:03.154Z,11.25
2022-08-21T05:02:03.141Z,11.25
2022-08-21T05:03:03.127Z,11.25
2022-08-21T05:04:03.110Z,11.25
2022-08-21T05:05:03.095Z,11.25
2022-08-21T05:06:03.081Z,11.25
2022-08-21T05:07:03.063Z,11.25
2022-08-21T05:08:03.049Z,11.25
2022-08-21T05:09:03.036Z,11.25
2022-08-21T05:10:03.020Z,11.25
2022-08-21T05:11:03.006Z,11.25
2022-08-21T05:12:02.991Z,11.25
2022-08-21T05:13:02.988Z,11.25
2022-08-21T05:14:02.962Z,11.25
2022-08-21T05:15:02.944Z,16.88
2022-08-21T05:16:02.931Z,16.88
2022-08-21T05:17:02.913Z,16.88
2022-08-21T05:18:02.910Z,16.88
2022-08-21T05:19:02.884Z,16.88
2022-08-21T05:20:02.870Z,16.88
2022-08-21T05:21:02.857Z,16.88
2022-08-21T05:22:02.842Z,16.88
2022-08-21T05:23:02.824Z,16.88
2022-08-21T05:24:02.811Z,16.88
2022-08-21T05:25:02.795Z,16.88
2022-08-21T05:26:02.786Z,16.88
2022-08-21T05:27:03.859Z,16.88
2022-08-21T05:28:02.752Z,16.88
2022-08-21T05:29:02.738Z,16.88
2022-08-21T05:30:02.722Z,22.50
2022-08-21T05:31:02.708Z,22.50
2022-08-21T05:32:02.693Z,22.50
2022-08-21T05:33:02.674Z,22.50
2022-08-21T05:34:02.662Z,22.50
2022-08-21T05:35:02.646Z,22.50
2022-08-21T05:36:02.634Z,22.50
2022-08-21T05:37:07.352Z,28.13
2022-08-21T05:38:02.603Z,28.13
2022-08-21T05:39:02.586Z,28.13
2022-08-21T05:40:05.137Z,28.13
2022-08-21T05:41:02.625Z,28.13
2022-08-21T05:42:02.546Z,33.75
2022-08-21T05:43:02.832Z,33.75
2022-08-21T05:44:02.520Z,33.75
2022-08-21T05:45:02.506Z,33.75
2022-08-21T05:46:02.502Z,33.75
2022-08-21T05:47:02.487Z,33.75
2022-08-21T05:48:02.467Z,39.38
2022-08-21T05:49:02.468Z,39.38
2022-08-21T05:50:02.449Z,39.38
2022-08-21T05:51:02.412Z,39.38
2022-08-21T05:52:02.401Z,39.38
2022-08-21T05:53:07.273Z,39.38
2022-08-21T05:54:02.370Z,39.38
2022-08-21T05:55:02.355Z,39.38
2022-08-21T05:56:02.340Z,39.38
2022-08-21T05:57:02.327Z,45.00
2022-08-21T05:58:02.314Z,45.00
2022-08-21T05:59:02.301Z,45.00
2022-08-21T06:00:02.287Z,45.00
2022-08-21T06:01:02.360Z,45.00
2022-08-21T06:02:05.555Z,45.00
2022-08-21T06:03:02.241Z,45.00
2022-08-21T06:04:02.230Z,50.63
2022-08-21T06:05:02.213Z,50.63
2022-08-21T06:06:02.207Z,50.63
2022-08-21T06:07:02.188Z,50.63
2022-08-21T06:08:02.171Z,50.63
2022-08-21T06:09:02.156Z,50.63
2022-08-21T06:10:02.146Z,50.63
2022-08-21T06:11:02.134Z,56.25
2022-08-21T06:12:02.117Z,56.25
2022-08-21T06:13:02.102Z,56.25
2022-08-21T06:14:02.089Z,56.25
2022-08-21T06:15:02.079Z,56.25
2022-08-21T06:16:02.062Z,56.25
2022-08-21T06:17:02.060Z,61.88
2022-08-21T06:18:02.035Z,61.88
2022-08-21T06:19:03.157Z,61.88
2022-08-21T06:20:02.008Z,61.88
2022-08-21T06:21:01.996Z,61.88
2022-08-21T06:22:01.985Z,61.88
2022-08-21T06:23:01.967Z,61.88
2022-08-21T06:24:01.957Z,67.50
2022-08-21T06:25:01.944Z,67.50
2022-08-21T06:26:01.928Z,67.50
2022-08-21T06:27:01.916Z,67.50
2022-08-21T06:28:01.911Z,67.50
2022-08-21T06:29:01.889Z,73.13
2022-08-21T06:30:01.882Z,73.13
2022-08-21T06:31:01.860Z,73.13
2022-08-21T06:32:01.849Z,73.13
2022-08-21T06:33:01.836Z,73.13
2022-08-21T06:34:01.824Z,73.13
2022-08-21T06:35:01.810Z,73.13
2022-08-21T06:36:01.798Z,73.13
2022-08-21T06:37:01.789Z,73.13
2022-08-21T06:38:01.796Z,73.13
2022-08-21T06:39:01.761Z,78.75
2022-08-21T06:40:01.783Z,78.75
2022-08-21T06:41:01.735Z,78.75
2022-08-21T06:42:01.722Z,78.75
2022-08-21T06:43:01.707Z,84.38
2022-08-21T06:44:01.695Z,84.38
2022-08-21T06:45:01.682Z,84.38
2022-08-21T06:46:01.669Z,84.38
2022-08-21T06:47:01.658Z,90.00
2022-08-21T06:48:01.642Z,90.00
2022-08-21T06:49:01.630Z,90.00
2022-08-21T06:50:01.620Z,90.00
2022-08-21T06:51:01.607Z,95.63
2022-08-21T06:52:01.594Z,95.63
2022-08-21T06:53:01.581Z,95.63
2022-08-21T06:54:01.572Z,95.63
2022-08-21T06:55:01.555Z,101.25
2022-08-21T06:56:01.548Z,101.25
2022-08-21T06:57:01.542Z,101.25
2022-08-21T06:58:01.527Z,101.25
2022-08-21T06:59:01.506Z,101.25
2022-08-21T07:00:01.500Z,106.88
2022-08-21T07:01:01.672Z,106.88
2022-08-21T07:02:01.542Z,106.88
2022-08-21T07:03:01.456Z,112.50
2022-08-21T07:04:01.446Z,112.50
2022-08-21T07:05:01.433Z,112.50
2022-08-21T07:06:01.420Z,112.50
2022-08-21T07:07:01.409Z,118.13
2022-08-21T07:08:01.395Z,118.13
2022-08-21T07:09:01.385Z,123.75
2022-08-21T07:10:01.371Z,123.75
2022-08-21T07:11:01.358Z,123.75
2022-08-21T07:12:01.348Z,129.38
2022-08-21T07:13:01.860Z,129.38
2022-08-21T07:14:01.332Z,135.00
2022-08-21T07:15:01.318Z,135.00
2022-08-21T07:16:04.125Z,140.63
2022-08-21T07:17:01.297Z,146.25
2022-08-21T07:18:01.279Z,146.25
2022-08-21T07:19:01.271Z,146.25
2022-08-21T07:20:01.253Z,151.88
2022-08-21T07:21:01.245Z,157.50
2022-08-21T07:22:01.229Z,163.13
2022-08-21T07:23:01.226Z,163.13
2022-08-21T07:24:01.209Z,163.13
2022-08-21T07:25:01.199Z,174.38
2022-08-21T07:26:01.185Z,180.00
2022-08-21T07:27:01.175Z,185.63
2022-08-21T07:28:01.163Z,185.63
2022-08-21T07:29:01.155Z,191.25
2022-08-21T07:30:01.137Z,196.88
2022-08-21T07:31:01.130Z,202.50
2022-08-21T07:32:01.116Z,208.13
2022-08-21T07:33:01.242Z,219.38
2022-08-21T07:34:01.096Z,225.00
2022-08-21T07:35:01.084Z,225.00
2022-08-21T07:36:01.071Z,236.25
2022-08-21T07:37:09.859Z,241.88
2022-08-21T07:38:01.052Z,247.50
2022-08-21T07:39:01.041Z,258.75
2022-08-21T07:40:01.080Z,270.00
2022-08-21T07:41:01.023Z,275.63
2022-08-21T07:42:03.961Z,286.88
2022-08-21T07:43:01.035Z,292.50
2022-08-21T07:44:00.990Z,303.75
2022-08-21T07:45:00.979Z,315.00
2022-08-21T07:46:00.970Z,315.00
2022-08-21T07:47:00.969Z,326.25
2022-08-21T07:48:00.948Z,337.50
2022-08-21T07:49:00.942Z,348.75
2022-08-21T07:50:00.931Z,354.38
2022-08-21T07:51:00.919Z,365.63
2022-08-21T07:52:00.907Z,371.25
2022-08-21T07:53:01.095Z,382.50
2022-08-21T07:54:00.890Z,393.75
2022-08-21T07:55:05.854Z,399.38
2022-08-21T07:56:00.871Z,405.00
2022-08-21T07:57:00.864Z,410.63
2022-08-21T07:58:00.851Z,421.88
2022-08-21T07:59:00.844Z,433.13
2022-08-21T08:00:00.838Z,438.75
2022-08-21T08:01:00.878Z,444.38
2022-08-21T08:02:00.818Z,455.63
2022-08-21T08:03:00.924Z,461.25
2022-08-21T08:04:00.797Z,466.88
2022-08-21T08:05:00.791Z,472.50
2022-08-21T08:06:00.780Z,483.75
2022-08-21T08:07:00.781Z,489.38
2022-08-21T08:08:00.765Z,489.38
2022-08-21T08:09:00.757Z,500.63
2022-08-21T08:10:00.748Z,506.25
2022-08-21T08:11:00.742Z,511.88
2022-08-21T08:12:00.740Z,517.50
2022-08-21T08:13:00.934Z,523.13
2022-08-21T08:14:00.720Z,528.75
2022-08-21T08:15:00.710Z,534.38
2022-08-21T08:16:00.702Z,545.63
2022-08-21T08:17:00.696Z,551.25
2022-08-21T08:18:00.685Z,556.88
2022-08-21T08:19:00.678Z,562.50
2022-08-21T08:20:00.677Z,568.13
2022-08-21T08:21:00.665Z,568.13
2022-08-21T08:22:00.658Z,573.75
2022-08-21T08:23:00.788Z,579.38
2022-08-21T08:24:00.645Z,585.00
2022-08-21T08:25:00.639Z,590.63
2022-08-21T08:26:00.634Z,590.63
2022-08-21T08:27:00.625Z,601.88
2022-08-21T08:28:00.620Z,596.25
2022-08-21T08:29:00.616Z,601.88
2022-08-21T08:30:00.606Z,607.50
2022-08-21T08:31:00.598Z,601.88
2022-08-21T08:32:00.592Z,601.88
2022-08-21T08:33:00.868Z,607.50
2022-08-21T08:34:00.579Z,613.13
2022-08-21T08:35:00.576Z,607.50
2022-08-21T08:36:06.562Z,607.50
2022-08-21T08:37:00.565Z,613.13
2022-08-21T08:38:00.563Z,613.13
2022-08-21T08:39:00.554Z,607.50
2022-08-21T08:40:00.589Z,613.13
2022-08-21T08:41:00.543Z,613.13
2022-08-21T08:42:00.536Z,613.13
2022-08-21T08:43:01.056Z,613.13
2022-08-21T08:44:00.531Z,618.75
2022-08-21T08:45:00.523Z,618.75
2022-08-21T08:46:00.521Z,624.38
2022-08-21T08:47:00.513Z,624.38
2022-08-21T08:48:00.509Z,618.75
2022-08-21T08:49:00.524Z,618.75
2022-08-21T08:50:00.501Z,624.38
2022-08-21T08:51:00.495Z,630.00
2022-08-21T08:52:00.492Z,630.00
2022-08-21T08:53:00.782Z,630.00
2022-08-21T08:54:00.482Z,630.00
2022-08-21T08:55:00.479Z,635.63
2022-08-21T08:56:00.473Z,630.00
2022-08-21T08:57:00.471Z,630.00
2022-08-21T08:58:00.466Z,624.38
2022-08-21T08:59:00.461Z,630.00
2022-08-21T09:00:00.459Z,630.00
2022-08-21T09:01:00.478Z,630.00
2022-08-21T09:02:00.449Z,630.00
2022-08-21T09:03:00.644Z,630.00
2022-08-21T09:04:00.441Z,635.63
2022-08-21T09:05:00.445Z,635.63
2022-08-21T09:06:00.431Z,630.00
2022-08-21T09:07:00.432Z,630.00
2022-08-21T09:08:00.426Z,635.63
2022-08-21T09:09:00.429Z,635.63
2022-08-21T09:10:00.417Z,635.63
2022-08-21T09:11:00.415Z,641.25
2022-08-21T09:12:00.410Z,641.25
2022-08-21T09:13:00.694Z,641.25
2022-08-21T09:14:00.406Z,641.25
2022-08-21T09:15:00.413Z,641.25
2022-08-21T09:16:00.397Z,635.63
2022-08-21T09:17:00.400Z,624.38
2022-08-21T09:18:00.407Z,618.75
2022-08-21T09:19:00.388Z,607.50
2022-08-21T09:20:00.386Z,607.50
2022-08-21T09:21:00.380Z,618.75
2022-08-21T09:22:00.382Z,630.00
2022-08-21T09:23:00.604Z,624.38
2022-08-21T09:24:00.379Z,624.38
2022-08-21T09:25:00.408Z,500.63
2022-08-21T09:26:00.391Z,556.88
2022-08-21T09:27:00.363Z,635.63
2022-08-21T09:28:00.362Z,641.25
2022-08-21T09:29:00.357Z,652.50
2022-08-21T09:30:00.355Z,652.50
2022-08-21T09:31:00.352Z,641.25
2022-08-21T09:32:00.351Z,646.88
2022-08-21T09:33:00.594Z,646.88
2022-08-21T09:34:00.342Z,652.50
2022-08-21T09:35:00.343Z,652.50
2022-08-21T09:36:00.340Z,652.50
2022-08-21T09:37:00.342Z,652.50
2022-08-21T09:38:00.335Z,652.50
2022-08-21T09:39:00.337Z,646.88
2022-08-21T09:40:00.375Z,635.63
2022-08-21T09:41:00.327Z,652.50
2022-08-21T09:42:00.327Z,652.50
2022-08-21T09:43:00.529Z,652.50
2022-08-21T09:44:00.323Z,658.13
2022-08-21T09:45:00.320Z,663.75
2022-08-21T09:46:00.319Z,663.75
2022-08-21T09:47:00.318Z,658.13
2022-08-21T09:48:00.316Z,652.50
2022-08-21T09:49:00.315Z,658.13
2022-08-21T09:50:00.315Z,646.88
2022-08-21T09:51:00.312Z,652.50
2022-08-21T09:52:00.312Z,652.50
2022-08-21T09:53:00.562Z,646.88
2022-08-21T09:54:00.303Z,641.25
2022-08-21T09:55:00.305Z,646.88
2022-08-21T09:56:00.303Z,641.25
2022-08-21T09:57:00.300Z,646.88
2022-08-21T09:58:00.299Z,646.88
2022-08-21T09:59:00.297Z,455.63
2022-08-21T10:00:00.307Z,281.25
2022-08-21T10:01:00.368Z,135.00
2022-08-21T10:02:00.293Z,652.50
2022-08-21T10:03:00.424Z,292.50
2022-08-21T10:04:00.300Z,157.50
2022-08-21T10:05:00.288Z,635.63
2022-08-21T10:06:00.292Z,646.88
2022-08-21T10:07:00.283Z,630.00
2022-08-21T10:08:00.291Z,646.88
2022-08-21T10:09:00.282Z,669.38
2022-08-21T10:10:00.285Z,680.63
2022-08-21T10:11:00.276Z,686.25
2022-08-21T10:12:00.281Z,691.88
2022-08-21T10:13:00.392Z,686.25
2022-08-21T10:14:00.271Z,686.25
2022-08-21T10:15:00.273Z,703.13
2022-08-21T10:16:00.274Z,697.50
2022-08-21T10:17:00.269Z,691.88
2022-08-21T10:18:00.266Z,528.75
2022-08-21T10:19:00.268Z,168.75
2022-08-21T10:20:00.267Z,174.38
2022-08-21T10:21:00.270Z,163.13
2022-08-21T10:22:00.267Z,523.13
2022-08-21T10:23:00.436Z,168.75
2022-08-21T10:24:00.257Z,146.25
2022-08-21T10:25:00.260Z,601.88
2022-08-21T10:26:13.235Z,382.50
2022-08-21T10:27:00.252Z,135.00
2022-08-21T10:28:00.249Z,146.25
2022-08-21T10:29:00.249Z,168.75
2022-08-21T10:30:00.264Z,691.88
2022-08-21T10:31:00.245Z,691.88
2022-08-21T10:32:00.241Z,708.75
2022-08-21T10:33:00.399Z,725.63
2022-08-21T10:34:00.235Z,720.00
2022-08-21T10:35:00.233Z,708.75
2022-08-21T10:36:00.232Z,703.13
2022-08-21T10:37:00.230Z,697.50
2022-08-21T10:38:00.232Z,708.75
2022-08-21T10:39:25.210Z,708.75
2022-08-21T10:40:00.327Z,725.63
2022-08-21T10:41:00.223Z,725.63
2022-08-21T10:42:00.237Z,714.38
2022-08-21T10:43:00.487Z,720.00
2022-08-21T10:44:00.218Z,641.25
2022-08-21T10:45:00.223Z,208.13
2022-08-21T10:46:00.220Z,281.25
2022-08-21T10:47:00.212Z,405.00
2022-08-21T10:48:00.210Z,748.13
2022-08-21T10:49:00.421Z,196.88
2022-08-21T10:50:00.210Z,146.25
2022-08-21T10:51:00.207Z,146.25
2022-08-21T10:52:00.204Z,135.00
2022-08-21T10:53:00.432Z,146.25
2022-08-21T10:54:00.204Z,697.50
2022-08-21T10:55:00.195Z,703.13
2022-08-21T10:56:00.196Z,731.25
2022-08-21T10:57:00.193Z,742.50
2022-08-21T10:58:00.198Z,731.25
2022-08-21T10:59:00.189Z,748.13
2022-08-21T11:00:00.196Z,748.13
2022-08-21T11:01:00.226Z,748.13
2022-08-21T11:02:00.183Z,753.75
2022-08-21T11:03:00.417Z,748.13
2022-08-21T11:04:00.178Z,742.50
2022-08-21T11:05:00.177Z,742.50
2022-08-21T11:06:00.176Z,742.50
2022-08-21T11:07:00.170Z,742.50
2022-08-21T11:08:01.165Z,742.50
2022-08-21T11:09:00.166Z,765.00
2022-08-21T11:10:00.188Z,759.38
2022-08-21T11:11:01.298Z,759.38
2022-08-21T11:12:11.491Z,765.00
2022-08-21T11:13:00.252Z,765.00
2022-08-21T11:14:00.159Z,770.63
2022-08-21T11:15:00.156Z,770.63
2022-08-21T11:16:00.161Z,770.63
2022-08-21T11:17:00.155Z,776.25
2022-08-21T11:18:00.157Z,781.88
2022-08-21T11:19:00.153Z,781.88
2022-08-21T11:20:00.162Z,781.88
2022-08-21T11:21:00.149Z,787.50
2022-08-21T11:22:00.148Z,781.88
2022-08-21T11:23:04.101Z,787.50
2022-08-21T11:24:00.149Z,787.50
2022-08-21T11:25:00.143Z,781.88
2022-08-21T11:26:00.143Z,770.63
2022-08-21T11:27:00.142Z,787.50
2022-08-21T11:28:00.140Z,793.13
2022-08-21T11:29:00.140Z,804.38
2022-08-21T11:30:00.202Z,810.00
2022-08-21T11:31:00.144Z,804.38
2022-08-21T11:32:00.137Z,810.00
2022-08-21T11:33:00.378Z,815.63
2022-08-21T11:34:00.135Z,804.38
2022-08-21T11:35:00.168Z,815.63
2022-08-21T11:36:00.136Z,821.25
2022-08-21T11:37:00.133Z,821.25
2022-08-21T11:38:00.138Z,821.25
2022-08-21T11:39:00.132Z,821.25
2022-08-21T11:40:00.239Z,798.75
2022-08-21T11:41:00.129Z,821.25
2022-08-21T11:42:00.130Z,832.50
2022-08-21T11:43:00.309Z,838.13
2022-08-21T11:44:00.129Z,838.13
2022-08-21T11:45:00.132Z,832.50
2022-08-21T11:46:00.130Z,838.13
2022-08-21T11:47:00.128Z,843.75
2022-08-21T11:48:00.136Z,855.00
2022-08-21T11:49:00.139Z,855.00
2022-08-21T11:50:00.151Z,860.63
2022-08-21T11:51:00.128Z,871.88
2022-08-21T11:52:00.128Z,883.13
2022-08-21T11:53:00.320Z,866.25
2022-08-21T11:54:00.132Z,866.25
2022-08-21T11:55:00.152Z,860.63
2022-08-21T11:56:00.129Z,860.63
2022-08-21T11:57:00.129Z,866.25
2022-08-21T11:58:00.131Z,866.25
2022-08-21T11:59:00.129Z,866.25
2022-08-21T12:00:00.141Z,866.25
2022-08-21T12:01:00.131Z,866.25
2022-08-21T12:02:00.229Z,871.88
2022-08-21T12:03:00.349Z,871.88
2022-08-21T12:04:00.130Z,877.50
2022-08-21T12:05:00.135Z,877.50
2022-08-21T12:06:00.133Z,877.50
2022-08-21T12:07:00.131Z,877.50
2022-08-21T12:08:01.066Z,877.50
2022-08-21T12:09:00.139Z,888.75
2022-08-21T12:10:00.132Z,883.13
2022-08-21T12:11:00.132Z,877.50
2022-08-21T12:12:00.136Z,871.88
2022-08-21T12:13:00.180Z,883.13
2022-08-21T12:14:00.136Z,871.88
2022-08-21T12:15:00.134Z,866.25
2022-08-21T12:16:00.134Z,849.38
2022-08-21T12:17:00.136Z,821.25
2022-08-21T12:18:00.138Z,849.38
2022-08-21T12:19:00.136Z,860.63
2022-08-21T12:20:00.174Z,871.88
2022-08-21T12:21:00.140Z,860.63
2022-08-21T12:22:00.142Z,871.88
2022-08-21T12:23:00.133Z,883.13
2022-08-21T12:24:00.138Z,894.38
2022-08-21T12:25:00.134Z,888.75
2022-08-21T12:26:00.143Z,894.38
2022-08-21T12:27:00.149Z,888.75
2022-08-21T12:28:00.141Z,894.38
2022-08-21T12:29:00.138Z,883.13
2022-08-21T12:30:00.148Z,877.50
2022-08-21T12:31:00.145Z,888.75
2022-08-21T12:32:00.142Z,877.50
2022-08-21T12:33:00.350Z,877.50
2022-08-21T12:34:00.145Z,877.50
2022-08-21T12:35:00.146Z,883.13
2022-08-21T12:36:00.150Z,888.75
2022-08-21T12:37:00.146Z,883.13
2022-08-21T12:38:00.147Z,888.75
2022-08-21T12:39:00.150Z,860.63
2022-08-21T12:40:00.277Z,849.38
2022-08-21T12:41:00.277Z,658.13
2022-08-21T12:42:14.851Z,118.13
2022-08-21T12:44:07.162Z,129.38
2022-08-21T12:45:07.144Z,450.00
2022-08-21T12:47:16.173Z,855.00
2022-08-21T12:48:16.157Z,849.38
2022-08-21T12:50:23.200Z,855.00
2022-08-21T12:51:23.191Z,849.38
2022-08-21T12:52:23.182Z,838.13
2022-08-21T12:53:23.203Z,838.13